sensor_id;sensor_type;location;lat;lon;timestamp;P1;durP1;ratioP1;P2;durP2;ratioP2
15071;SDS011;7635;56.696;13.002;2023-03-02T00:02:05;2.60;;;1.87;;
15071;SDS011;7635;56.696;13.002;2023-03-02T00:04:38;1.40;;;1.30;;
15071;SDS011;7635;56.696;13.002;2023-03-02T00:07:10;1.33;;;1.20;;
15071;SDS011;7635;56.696;13.002;2023-03-02T00:09:39;0.90;;;0.90;;
15071;SDS011;7635;56.696;13.002;2023-03-02T00:12:07;1.00;;;1.00;;
15071;SDS011;7635;56.696;13.002;2023-03-02T00:14:35;0.90;;;0.90;;
15071;SDS011;7635;56.696;13.002;2023-03-02T00:17:03;1.87;;;1.20;;
15071;SDS011;7635;56.696;13.002;2023-03-02T00:19:29;1.00;;;1.00;;
15071;SDS011;7635;56.696;13.002;2023-03-02T00:21:56;1.23;;;1.20;;
15071;SDS011;7635;56.696;13.002;2023-03-02T00:24:23;1.73;;;1.07;;
15071;SDS011;7635;56.696;13.002;2023-03-02T00:26:49;1.50;;;1.10;;
15071;SDS011;7635;56.696;13.002;2023-03-02T00:29:16;1.23;;;1.20;;
15071;SDS011;7635;56.696;13.002;2023-03-02T00:31:44;1.10;;;1.10;;
15071;SDS011;7635;56.696;13.002;2023-03-02T00:34:11;0.90;;;0.90;;
15071;SDS011;7635;56.696;13.002;2023-03-02T00:36:38;1.90;;;1.30;;
15071;SDS011;7635;56.696;13.002;2023-03-02T00:39:04;1.27;;;1.17;;
15071;SDS011;7635;56.696;13.002;2023-03-02T00:41:31;1.80;;;1.60;;
15071;SDS011;7635;56.696;13.002;2023-03-02T00:43:58;1.97;;;1.77;;
15071;SDS011;7635;56.696;13.002;2023-03-02T00:46:24;4.30;;;2.30;;
15071;SDS011;7635;56.696;13.002;2023-03-02T00:48:53;9.37;;;4.47;;
15071;SDS011;7635;56.696;13.002;2023-03-02T00:51:20;5.57;;;3.87;;
15071;SDS011;7635;56.696;13.002;2023-03-02T00:53:47;6.47;;;3.43;;
15071;SDS011;7635;56.696;13.002;2023-03-02T00:56:13;4.50;;;3.13;;
15071;SDS011;7635;56.696;13.002;2023-03-02T00:58:40;3.97;;;2.50;;
15071;SDS011;7635;56.696;13.002;2023-03-02T01:01:08;1.87;;;1.67;;
15071;SDS011;7635;56.696;13.002;2023-03-02T01:03:36;2.10;;;1.60;;
15071;SDS011;7635;56.696;13.002;2023-03-02T01:06:04;1.57;;;1.47;;
15071;SDS011;7635;56.696;13.002;2023-03-02T01:08:38;1.60;;;1.50;;
15071;SDS011;7635;56.696;13.002;2023-03-02T01:11:10;2.77;;;1.60;;
15071;SDS011;7635;56.696;13.002;2023-03-02T01:13:38;1.83;;;1.67;;
15071;SDS011;7635;56.696;13.002;2023-03-02T01:16:04;3.27;;;1.50;;
15071;SDS011;7635;56.696;13.002;2023-03-02T01:18:32;1.87;;;1.70;;
15071;SDS011;7635;56.696;13.002;2023-03-02T01:21:03;4.13;;;2.20;;
15071;SDS011;7635;56.696;13.002;2023-03-02T01:23:33;2.03;;;1.70;;
15071;SDS011;7635;56.696;13.002;2023-03-02T01:26:00;2.03;;;1.73;;
15071;SDS011;7635;56.696;13.002;2023-03-02T01:28:27;1.80;;;1.50;;
15071;SDS011;7635;56.696;13.002;2023-03-02T01:30:54;1.97;;;1.63;;
15071;SDS011;7635;56.696;13.002;2023-03-02T01:33:20;2.47;;;1.70;;
15071;SDS011;7635;56.696;13.002;2023-03-02T01:35:47;1.60;;;1.50;;
15071;SDS011;7635;56.696;13.002;2023-03-02T01:38:15;2.30;;;2.00;;
15071;SDS011;7635;56.696;13.002;2023-03-02T01:40:42;1.93;;;1.80;;
15071;SDS011;7635;56.696;13.002;2023-03-02T01:43:10;3.00;;;1.70;;
15071;SDS011;7635;56.696;13.002;2023-03-02T01:45:46;2.30;;;1.77;;
15071;SDS011;7635;56.696;13.002;2023-03-02T01:48:19;1.50;;;1.40;;
15071;SDS011;7635;56.696;13.002;2023-03-02T01:50:51;1.60;;;1.50;;
15071;SDS011;7635;56.696;13.002;2023-03-02T01:53:19;3.93;;;1.70;;
15071;SDS011;7635;56.696;13.002;2023-03-02T01:55:48;1.60;;;1.50;;
15071;SDS011;7635;56.696;13.002;2023-03-02T01:58:15;1.97;;;1.60;;
15071;SDS011;7635;56.696;13.002;2023-03-02T02:00:42;2.43;;;1.60;;
15071;SDS011;7635;56.696;13.002;2023-03-02T02:03:10;2.27;;;1.90;;
15071;SDS011;7635;56.696;13.002;2023-03-02T02:05:45;2.30;;;1.63;;
15071;SDS011;7635;56.696;13.002;2023-03-02T02:08:17;1.87;;;1.67;;
15071;SDS011;7635;56.696;13.002;2023-03-02T02:10:45;1.50;;;1.37;;
15071;SDS011;7635;56.696;13.002;2023-03-02T02:13:12;1.63;;;1.53;;
15071;SDS011;7635;56.696;13.002;2023-03-02T02:15:39;1.80;;;1.60;;
15071;SDS011;7635;56.696;13.002;2023-03-02T02:18:06;1.60;;;1.50;;
15071;SDS011;7635;56.696;13.002;2023-03-02T02:20:34;1.70;;;1.60;;
15071;SDS011;7635;56.696;13.002;2023-03-02T02:23:11;1.93;;;1.70;;
15071;SDS011;7635;56.696;13.002;2023-03-02T02:25:55;1.70;;;1.60;;
15071;SDS011;7635;56.696;13.002;2023-03-02T02:28:39;1.57;;;1.33;;
15071;SDS011;7635;56.696;13.002;2023-03-02T02:31:10;2.10;;;1.60;;
15071;SDS011;7635;56.696;13.002;2023-03-02T02:33:40;1.80;;;1.50;;
15071;SDS011;7635;56.696;13.002;2023-03-02T02:36:12;1.50;;;1.40;;
15071;SDS011;7635;56.696;13.002;2023-03-02T02:38:42;1.43;;;1.30;;
15071;SDS011;7635;56.696;13.002;2023-03-02T02:41:14;1.10;;;1.00;;
15071;SDS011;7635;56.696;13.002;2023-03-02T02:43:45;0.97;;;0.97;;
15071;SDS011;7635;56.696;13.002;2023-03-02T02:46:13;1.43;;;1.33;;
15071;SDS011;7635;56.696;13.002;2023-03-02T02:48:40;1.47;;;1.13;;
15071;SDS011;7635;56.696;13.002;2023-03-02T02:51:07;1.70;;;1.27;;
15071;SDS011;7635;56.696;13.002;2023-03-02T02:53:39;1.47;;;1.33;;
15071;SDS011;7635;56.696;13.002;2023-03-02T02:56:09;2.37;;;1.40;;
15071;SDS011;7635;56.696;13.002;2023-03-02T02:58:40;1.97;;;1.40;;
15071;SDS011;7635;56.696;13.002;2023-03-02T03:01:10;2.17;;;1.50;;
15071;SDS011;7635;56.696;13.002;2023-03-02T03:03:38;1.50;;;1.40;;
15071;SDS011;7635;56.696;13.002;2023-03-02T03:06:10;1.27;;;1.23;;
15071;SDS011;7635;56.696;13.002;2023-03-02T03:08:53;1.53;;;1.20;;
15071;SDS011;7635;56.696;13.002;2023-03-02T03:11:25;1.73;;;1.20;;
15071;SDS011;7635;56.696;13.002;2023-03-02T03:13:59;1.07;;;1.07;;
15071;SDS011;7635;56.696;13.002;2023-03-02T03:16:32;1.00;;;0.90;;
15071;SDS011;7635;56.696;13.002;2023-03-02T03:19:02;0.90;;;0.90;;
15071;SDS011;7635;56.696;13.002;2023-03-02T03:21:32;1.40;;;1.10;;
15071;SDS011;7635;56.696;13.002;2023-03-02T03:24:00;1.07;;;1.00;;
15071;SDS011;7635;56.696;13.002;2023-03-02T03:26:26;1.17;;;1.17;;
15071;SDS011;7635;56.696;13.002;2023-03-02T03:28:53;1.10;;;0.90;;
15071;SDS011;7635;56.696;13.002;2023-03-02T03:31:23;1.73;;;1.30;;
15071;SDS011;7635;56.696;13.002;2023-03-02T03:33:51;1.33;;;1.07;;
15071;SDS011;7635;56.696;13.002;2023-03-02T03:36:18;1.30;;;1.20;;
15071;SDS011;7635;56.696;13.002;2023-03-02T03:38:44;1.43;;;1.10;;
15071;SDS011;7635;56.696;13.002;2023-03-02T03:41:11;0.90;;;0.90;;
15071;SDS011;7635;56.696;13.002;2023-03-02T03:43:38;1.40;;;1.30;;
15071;SDS011;7635;56.696;13.002;2023-03-02T03:46:05;1.33;;;1.23;;
15071;SDS011;7635;56.696;13.002;2023-03-02T03:48:33;1.00;;;1.00;;
15071;SDS011;7635;56.696;13.002;2023-03-02T03:50:59;1.10;;;1.10;;
15071;SDS011;7635;56.696;13.002;2023-03-02T03:53:26;1.67;;;1.50;;
15071;SDS011;7635;56.696;13.002;2023-03-02T03:55:53;1.23;;;1.13;;
15071;SDS011;7635;56.696;13.002;2023-03-02T03:58:21;0.93;;;0.90;;
15071;SDS011;7635;56.696;13.002;2023-03-02T04:00:48;1.00;;;1.00;;
15071;SDS011;7635;56.696;13.002;2023-03-02T04:03:14;1.07;;;1.00;;
15071;SDS011;7635;56.696;13.002;2023-03-02T04:05:42;1.10;;;1.10;;
15071;SDS011;7635;56.696;13.002;2023-03-02T04:08:09;1.70;;;1.30;;
15071;SDS011;7635;56.696;13.002;2023-03-02T04:10:36;1.20;;;1.10;;
15071;SDS011;7635;56.696;13.002;2023-03-02T04:13:03;0.90;;;0.90;;
15071;SDS011;7635;56.696;13.002;2023-03-02T04:15:30;0.80;;;0.80;;
15071;SDS011;7635;56.696;13.002;2023-03-02T04:17:57;1.50;;;1.17;;
15071;SDS011;7635;56.696;13.002;2023-03-02T04:20:23;0.90;;;0.90;;
15071;SDS011;7635;56.696;13.002;2023-03-02T04:22:55;2.43;;;1.10;;
15071;SDS011;7635;56.696;13.002;2023-03-02T04:25:24;1.27;;;1.20;;
15071;SDS011;7635;56.696;13.002;2023-03-02T04:27:52;1.20;;;1.10;;
15071;SDS011;7635;56.696;13.002;2023-03-02T04:30:22;1.30;;;1.20;;
15071;SDS011;7635;56.696;13.002;2023-03-02T04:32:50;1.67;;;1.00;;
15071;SDS011;7635;56.696;13.002;2023-03-02T04:35:17;1.57;;;1.20;;
15071;SDS011;7635;56.696;13.002;2023-03-02T04:37:44;1.17;;;1.07;;
15071;SDS011;7635;56.696;13.002;2023-03-02T04:40:13;2.50;;;1.40;;
15071;SDS011;7635;56.696;13.002;2023-03-02T04:42:41;2.03;;;1.57;;
15071;SDS011;7635;56.696;13.002;2023-03-02T04:45:09;1.50;;;1.40;;
15071;SDS011;7635;56.696;13.002;2023-03-02T04:47:37;1.90;;;1.70;;
15071;SDS011;7635;56.696;13.002;2023-03-02T04:50:04;1.13;;;1.03;;
15071;SDS011;7635;56.696;13.002;2023-03-02T04:52:31;2.73;;;1.30;;
15071;SDS011;7635;56.696;13.002;2023-03-02T04:54:58;1.37;;;1.27;;
15071;SDS011;7635;56.696;13.002;2023-03-02T04:57:26;1.30;;;1.20;;
15071;SDS011;7635;56.696;13.002;2023-03-02T04:59:53;1.40;;;1.30;;
15071;SDS011;7635;56.696;13.002;2023-03-02T05:02:19;1.60;;;1.40;;
15071;SDS011;7635;56.696;13.002;2023-03-02T05:04:46;1.40;;;1.30;;
15071;SDS011;7635;56.696;13.002;2023-03-02T05:07:13;1.23;;;1.13;;
15071;SDS011;7635;56.696;13.002;2023-03-02T05:09:39;1.67;;;1.50;;
15071;SDS011;7635;56.696;13.002;2023-03-02T05:12:06;1.67;;;1.00;;
15071;SDS011;7635;56.696;13.002;2023-03-02T05:14:34;1.60;;;1.23;;
15071;SDS011;7635;56.696;13.002;2023-03-02T05:17:01;1.90;;;1.23;;
15071;SDS011;7635;56.696;13.002;2023-03-02T05:19:28;1.63;;;1.40;;
15071;SDS011;7635;56.696;13.002;2023-03-02T05:21:54;1.30;;;1.20;;
15071;SDS011;7635;56.696;13.002;2023-03-02T05:24:21;1.10;;;1.00;;
15071;SDS011;7635;56.696;13.002;2023-03-02T05:26:48;1.10;;;1.00;;
15071;SDS011;7635;56.696;13.002;2023-03-02T05:29:14;0.90;;;0.90;;
15071;SDS011;7635;56.696;13.002;2023-03-02T05:31:43;1.73;;;1.23;;
15071;SDS011;7635;56.696;13.002;2023-03-02T05:34:11;0.80;;;0.80;;
15071;SDS011;7635;56.696;13.002;2023-03-02T05:36:40;1.03;;;0.93;;
15071;SDS011;7635;56.696;13.002;2023-03-02T05:39:07;1.37;;;1.27;;
15071;SDS011;7635;56.696;13.002;2023-03-02T05:41:34;1.30;;;1.20;;
15071;SDS011;7635;56.696;13.002;2023-03-02T05:44:02;1.37;;;1.27;;
15071;SDS011;7635;56.696;13.002;2023-03-02T05:46:29;1.20;;;1.20;;
15071;SDS011;7635;56.696;13.002;2023-03-02T05:48:58;1.10;;;1.03;;
15071;SDS011;7635;56.696;13.002;2023-03-02T05:51:24;1.40;;;1.30;;
15071;SDS011;7635;56.696;13.002;2023-03-02T05:53:52;1.57;;;1.20;;
15071;SDS011;7635;56.696;13.002;2023-03-02T05:56:19;1.20;;;1.10;;
15071;SDS011;7635;56.696;13.002;2023-03-02T05:58:46;1.47;;;1.20;;
15071;SDS011;7635;56.696;13.002;2023-03-02T06:01:13;1.40;;;1.30;;
15071;SDS011;7635;56.696;13.002;2023-03-02T06:03:39;1.40;;;1.30;;
15071;SDS011;7635;56.696;13.002;2023-03-02T06:06:08;1.43;;;1.33;;
15071;SDS011;7635;56.696;13.002;2023-03-02T06:08:38;1.30;;;1.20;;
15071;SDS011;7635;56.696;13.002;2023-03-02T06:11:05;1.30;;;1.20;;
15071;SDS011;7635;56.696;13.002;2023-03-02T06:13:32;1.43;;;1.30;;
15071;SDS011;7635;56.696;13.002;2023-03-02T06:15:58;1.27;;;1.17;;
15071;SDS011;7635;56.696;13.002;2023-03-02T06:18:25;1.17;;;1.10;;
15071;SDS011;7635;56.696;13.002;2023-03-02T06:20:52;1.73;;;1.10;;
15071;SDS011;7635;56.696;13.002;2023-03-02T06:23:20;2.03;;;1.40;;
15071;SDS011;7635;56.696;13.002;2023-03-02T06:25:46;1.30;;;1.20;;
15071;SDS011;7635;56.696;13.002;2023-03-02T06:28:13;3.43;;;1.00;;
15071;SDS011;7635;56.696;13.002;2023-03-02T06:30:43;1.10;;;1.00;;
15071;SDS011;7635;56.696;13.002;2023-03-02T06:33:12;1.60;;;1.07;;
15071;SDS011;7635;56.696;13.002;2023-03-02T06:35:39;0.80;;;0.80;;
15071;SDS011;7635;56.696;13.002;2023-03-02T06:38:06;0.93;;;0.93;;
15071;SDS011;7635;56.696;13.002;2023-03-02T06:40:34;1.00;;;1.00;;
15071;SDS011;7635;56.696;13.002;2023-03-02T06:43:00;1.07;;;1.00;;
15071;SDS011;7635;56.696;13.002;2023-03-02T06:45:27;1.20;;;1.10;;
15071;SDS011;7635;56.696;13.002;2023-03-02T06:47:57;1.30;;;1.20;;
15071;SDS011;7635;56.696;13.002;2023-03-02T06:50:24;1.00;;;1.00;;
15071;SDS011;7635;56.696;13.002;2023-03-02T06:52:51;1.23;;;1.10;;
15071;SDS011;7635;56.696;13.002;2023-03-02T06:55:18;1.23;;;1.03;;
15071;SDS011;7635;56.696;13.002;2023-03-02T06:57:46;0.93;;;0.93;;
15071;SDS011;7635;56.696;13.002;2023-03-02T07:00:13;1.03;;;1.00;;
15071;SDS011;7635;56.696;13.002;2023-03-02T07:02:41;1.57;;;1.30;;
15071;SDS011;7635;56.696;13.002;2023-03-02T07:05:09;6.23;;;1.20;;
15071;SDS011;7635;56.696;13.002;2023-03-02T07:07:36;1.23;;;1.20;;
15071;SDS011;7635;56.696;13.002;2023-03-02T07:10:04;1.33;;;1.23;;
15071;SDS011;7635;56.696;13.002;2023-03-02T07:12:31;1.33;;;1.23;;
15071;SDS011;7635;56.696;13.002;2023-03-02T07:14:59;1.77;;;1.50;;
15071;SDS011;7635;56.696;13.002;2023-03-02T07:17:26;1.30;;;1.20;;
15071;SDS011;7635;56.696;13.002;2023-03-02T07:19:53;1.10;;;1.00;;
15071;SDS011;7635;56.696;13.002;2023-03-02T07:22:19;1.63;;;1.40;;
15071;SDS011;7635;56.696;13.002;2023-03-02T07:24:46;1.30;;;1.20;;
15071;SDS011;7635;56.696;13.002;2023-03-02T07:27:13;1.30;;;1.20;;
15071;SDS011;7635;56.696;13.002;2023-03-02T07:29:39;1.53;;;1.43;;
15071;SDS011;7635;56.696;13.002;2023-03-02T07:32:07;1.60;;;1.50;;
15071;SDS011;7635;56.696;13.002;2023-03-02T07:34:34;1.87;;;1.67;;
15071;SDS011;7635;56.696;13.002;2023-03-02T07:37:01;1.40;;;1.30;;
15071;SDS011;7635;56.696;13.002;2023-03-02T07:39:27;2.07;;;1.50;;
15071;SDS011;7635;56.696;13.002;2023-03-02T07:41:56;1.90;;;1.70;;
15071;SDS011;7635;56.696;13.002;2023-03-02T07:44:23;3.10;;;1.50;;
15071;SDS011;7635;56.696;13.002;2023-03-02T07:46:49;2.13;;;1.60;;
15071;SDS011;7635;56.696;13.002;2023-03-02T07:49:17;1.83;;;1.43;;
15071;SDS011;7635;56.696;13.002;2023-03-02T07:51:44;1.90;;;1.50;;
15071;SDS011;7635;56.696;13.002;2023-03-02T07:54:11;1.73;;;1.40;;
15071;SDS011;7635;56.696;13.002;2023-03-02T07:56:38;1.40;;;1.30;;
15071;SDS011;7635;56.696;13.002;2023-03-02T07:59:04;1.60;;;1.30;;
15071;SDS011;7635;56.696;13.002;2023-03-02T08:01:31;2.17;;;1.50;;
15071;SDS011;7635;56.696;13.002;2023-03-02T08:03:58;1.10;;;1.10;;
15071;SDS011;7635;56.696;13.002;2023-03-02T08:06:26;1.73;;;1.30;;
15071;SDS011;7635;56.696;13.002;2023-03-02T08:08:52;1.30;;;1.20;;
15071;SDS011;7635;56.696;13.002;2023-03-02T08:11:19;1.40;;;1.30;;
15071;SDS011;7635;56.696;13.002;2023-03-02T08:13:46;1.60;;;1.40;;
15071;SDS011;7635;56.696;13.002;2023-03-02T08:16:13;1.50;;;1.30;;
15071;SDS011;7635;56.696;13.002;2023-03-02T08:18:40;1.27;;;1.17;;
15071;SDS011;7635;56.696;13.002;2023-03-02T08:21:10;1.00;;;1.00;;
15071;SDS011;7635;56.696;13.002;2023-03-02T08:23:40;1.33;;;1.23;;
15071;SDS011;7635;56.696;13.002;2023-03-02T08:26:07;1.30;;;1.20;;
15071;SDS011;7635;56.696;13.002;2023-03-02T08:28:34;1.10;;;1.00;;
15071;SDS011;7635;56.696;13.002;2023-03-02T08:31:01;1.40;;;1.30;;
15071;SDS011;7635;56.696;13.002;2023-03-02T08:33:30;1.37;;;1.37;;
15071;SDS011;7635;56.696;13.002;2023-03-02T08:35:57;1.63;;;1.53;;
15071;SDS011;7635;56.696;13.002;2023-03-02T08:38:25;1.53;;;1.43;;
15071;SDS011;7635;56.696;13.002;2023-03-02T08:40:54;1.20;;;1.10;;
15071;SDS011;7635;56.696;13.002;2023-03-02T08:43:21;1.60;;;1.23;;
15071;SDS011;7635;56.696;13.002;2023-03-02T08:45:50;1.37;;;1.27;;
15071;SDS011;7635;56.696;13.002;2023-03-02T08:48:18;1.00;;;1.00;;
15071;SDS011;7635;56.696;13.002;2023-03-02T08:50:52;1.10;;;1.10;;
15071;SDS011;7635;56.696;13.002;2023-03-02T08:53:20;1.10;;;1.10;;
15071;SDS011;7635;56.696;13.002;2023-03-02T08:55:46;1.17;;;1.10;;
15071;SDS011;7635;56.696;13.002;2023-03-02T08:58:14;1.30;;;1.20;;
15071;SDS011;7635;56.696;13.002;2023-03-02T09:00:41;1.23;;;1.13;;
15071;SDS011;7635;56.696;13.002;2023-03-02T09:03:08;1.37;;;1.27;;
15071;SDS011;7635;56.696;13.002;2023-03-02T09:05:35;0.97;;;0.93;;
15071;SDS011;7635;56.696;13.002;2023-03-02T09:08:02;1.00;;;1.00;;
15071;SDS011;7635;56.696;13.002;2023-03-02T09:10:29;1.03;;;1.03;;
15071;SDS011;7635;56.696;13.002;2023-03-02T09:12:56;1.07;;;0.97;;
15071;SDS011;7635;56.696;13.002;2023-03-02T09:15:24;1.07;;;1.07;;
15071;SDS011;7635;56.696;13.002;2023-03-02T09:17:51;1.20;;;1.10;;
15071;SDS011;7635;56.696;13.002;2023-03-02T09:20:17;1.23;;;0.90;;
15071;SDS011;7635;56.696;13.002;2023-03-02T09:22:44;1.00;;;1.00;;
15071;SDS011;7635;56.696;13.002;2023-03-02T09:25:14;1.07;;;1.07;;
15071;SDS011;7635;56.696;13.002;2023-03-02T09:27:42;1.20;;;1.13;;
15071;SDS011;7635;56.696;13.002;2023-03-02T09:30:09;1.00;;;1.00;;
15071;SDS011;7635;56.696;13.002;2023-03-02T09:32:39;0.90;;;0.90;;
15071;SDS011;7635;56.696;13.002;2023-03-02T09:35:06;0.80;;;0.80;;
15071;SDS011;7635;56.696;13.002;2023-03-02T09:37:33;0.73;;;0.73;;
15071;SDS011;7635;56.696;13.002;2023-03-02T09:40:02;0.87;;;0.87;;
15071;SDS011;7635;56.696;13.002;2023-03-02T09:42:41;1.10;;;0.87;;
15071;SDS011;7635;56.696;13.002;2023-03-02T09:45:45;0.80;;;0.80;;
15071;SDS011;7635;56.696;13.002;2023-03-02T09:48:34;2.60;;;1.00;;
15071;SDS011;7635;56.696;13.002;2023-03-02T09:51:15;0.90;;;0.90;;
15071;SDS011;7635;56.696;13.002;2023-03-02T09:54:06;2.80;;;1.10;;
15071;SDS011;7635;56.696;13.002;2023-03-02T09:56:36;1.20;;;1.10;;
15071;SDS011;7635;56.696;13.002;2023-03-02T09:59:09;1.30;;;1.20;;
15071;SDS011;7635;56.696;13.002;2023-03-02T10:01:46;0.90;;;0.90;;
15071;SDS011;7635;56.696;13.002;2023-03-02T10:04:20;1.33;;;1.23;;
15071;SDS011;7635;56.696;13.002;2023-03-02T10:06:51;1.20;;;1.10;;
15071;SDS011;7635;56.696;13.002;2023-03-02T10:09:21;1.00;;;0.90;;
15071;SDS011;7635;56.696;13.002;2023-03-02T10:11:51;1.03;;;0.90;;
15071;SDS011;7635;56.696;13.002;2023-03-02T10:14:28;0.90;;;0.90;;
15071;SDS011;7635;56.696;13.002;2023-03-02T10:17:03;0.90;;;0.90;;
15071;SDS011;7635;56.696;13.002;2023-03-02T10:19:42;1.80;;;1.10;;
15071;SDS011;7635;56.696;13.002;2023-03-02T10:22:14;1.23;;;1.17;;
15071;SDS011;7635;56.696;13.002;2023-03-02T10:24:46;2.60;;;1.30;;
15071;SDS011;7635;56.696;13.002;2023-03-02T10:27:23;1.07;;;1.00;;
15071;SDS011;7635;56.696;13.002;2023-03-02T10:29:54;1.53;;;1.07;;
15071;SDS011;7635;56.696;13.002;2023-03-02T10:32:24;1.00;;;1.00;;
15071;SDS011;7635;56.696;13.002;2023-03-02T10:34:56;0.70;;;0.70;;
15071;SDS011;7635;56.696;13.002;2023-03-02T10:37:27;3.23;;;1.13;;
15071;SDS011;7635;56.696;13.002;2023-03-02T10:39:55;1.20;;;1.10;;
15071;SDS011;7635;56.696;13.002;2023-03-02T10:42:24;1.10;;;1.10;;
15071;SDS011;7635;56.696;13.002;2023-03-02T10:44:55;0.83;;;0.83;;
15071;SDS011;7635;56.696;13.002;2023-03-02T10:47:27;0.90;;;0.90;;
15071;SDS011;7635;56.696;13.002;2023-03-02T10:49:55;1.23;;;1.13;;
15071;SDS011;7635;56.696;13.002;2023-03-02T10:52:24;1.00;;;0.90;;
15071;SDS011;7635;56.696;13.002;2023-03-02T10:55:02;1.33;;;1.10;;
15071;SDS011;7635;56.696;13.002;2023-03-02T10:57:35;1.60;;;1.17;;
15071;SDS011;7635;56.696;13.002;2023-03-02T11:00:04;1.00;;;1.00;;
15071;SDS011;7635;56.696;13.002;2023-03-02T11:02:50;0.83;;;0.83;;
15071;SDS011;7635;56.696;13.002;2023-03-02T11:05:21;1.20;;;1.10;;
15071;SDS011;7635;56.696;13.002;2023-03-02T11:07:53;1.67;;;1.00;;
15071;SDS011;7635;56.696;13.002;2023-03-02T11:10:21;1.20;;;1.10;;
15071;SDS011;7635;56.696;13.002;2023-03-02T11:12:50;0.93;;;0.93;;
15071;SDS011;7635;56.696;13.002;2023-03-02T11:15:22;1.27;;;0.90;;
15071;SDS011;7635;56.696;13.002;2023-03-02T11:17:52;1.07;;;1.00;;
15071;SDS011;7635;56.696;13.002;2023-03-02T11:20:24;1.50;;;1.00;;
15071;SDS011;7635;56.696;13.002;2023-03-02T11:23:10;0.80;;;0.80;;
15071;SDS011;7635;56.696;13.002;2023-03-02T11:25:47;0.90;;;0.90;;
15071;SDS011;7635;56.696;13.002;2023-03-02T11:31:12;0.80;;;0.80;;
15071;SDS011;7635;56.696;13.002;2023-03-02T11:33:50;0.70;;;0.70;;
15071;SDS011;7635;56.696;13.002;2023-03-02T11:36:27;0.70;;;0.70;;
15071;SDS011;7635;56.696;13.002;2023-03-02T11:39:01;0.80;;;0.80;;
15071;SDS011;7635;56.696;13.002;2023-03-02T11:41:33;0.80;;;0.80;;
15071;SDS011;7635;56.696;13.002;2023-03-02T11:44:00;0.70;;;0.70;;
15071;SDS011;7635;56.696;13.002;2023-03-02T11:46:37;1.10;;;1.10;;
15071;SDS011;7635;56.696;13.002;2023-03-02T11:49:05;2.87;;;1.30;;
15071;SDS011;7635;56.696;13.002;2023-03-02T11:51:41;2.00;;;1.07;;
15071;SDS011;7635;56.696;13.002;2023-03-02T11:54:18;3.70;;;1.27;;
15071;SDS011;7635;56.696;13.002;2023-03-02T11:56:57;4.60;;;1.30;;
15071;SDS011;7635;56.696;13.002;2023-03-02T11:59:24;1.57;;;1.40;;
15071;SDS011;7635;56.696;13.002;2023-03-02T12:01:52;1.80;;;1.40;;
15071;SDS011;7635;56.696;13.002;2023-03-02T12:04:29;4.07;;;1.70;;
15071;SDS011;7635;56.696;13.002;2023-03-02T12:06:59;4.83;;;1.50;;
15071;SDS011;7635;56.696;13.002;2023-03-02T12:09:32;2.30;;;1.50;;
15071;SDS011;7635;56.696;13.002;2023-03-02T12:14:58;4.63;;;1.60;;
15071;SDS011;7635;56.696;13.002;2023-03-02T12:17:29;2.27;;;1.50;;
15071;SDS011;7635;56.696;13.002;2023-03-02T12:22:52;1.50;;;1.40;;
15071;SDS011;7635;56.696;13.002;2023-03-02T12:25:27;2.20;;;1.10;;
15071;SDS011;7635;56.696;13.002;2023-03-02T12:28:02;4.50;;;1.40;;
15071;SDS011;7635;56.696;13.002;2023-03-02T12:30:29;1.30;;;1.20;;
15071;SDS011;7635;56.696;13.002;2023-03-02T12:33:15;1.23;;;1.10;;
15071;SDS011;7635;56.696;13.002;2023-03-02T12:35:43;1.50;;;1.00;;
15071;SDS011;7635;56.696;13.002;2023-03-02T12:38:25;2.77;;;1.30;;
15071;SDS011;7635;56.696;13.002;2023-03-02T12:40:58;1.13;;;1.03;;
15071;SDS011;7635;56.696;13.002;2023-03-02T12:43:51;2.53;;;1.40;;
15071;SDS011;7635;56.696;13.002;2023-03-02T12:46:31;1.17;;;0.97;;
15071;SDS011;7635;56.696;13.002;2023-03-02T12:49:00;1.23;;;1.17;;
15071;SDS011;7635;56.696;13.002;2023-03-02T12:51:42;2.40;;;1.00;;
15071;SDS011;7635;56.696;13.002;2023-03-02T12:54:15;2.33;;;1.30;;
15071;SDS011;7635;56.696;13.002;2023-03-02T12:56:42;1.40;;;1.30;;
15071;SDS011;7635;56.696;13.002;2023-03-02T12:59:17;4.63;;;1.43;;
15071;SDS011;7635;56.696;13.002;2023-03-02T13:01:46;1.43;;;1.33;;
15071;SDS011;7635;56.696;13.002;2023-03-02T13:04:19;1.30;;;1.20;;
15071;SDS011;7635;56.696;13.002;2023-03-02T13:06:47;3.07;;;1.10;;
15071;SDS011;7635;56.696;13.002;2023-03-02T13:09:15;1.63;;;1.10;;
15071;SDS011;7635;56.696;13.002;2023-03-02T13:11:44;0.90;;;0.90;;
15071;SDS011;7635;56.696;13.002;2023-03-02T13:14:17;0.93;;;0.90;;
15071;SDS011;7635;56.696;13.002;2023-03-02T13:16:52;2.07;;;1.10;;
15071;SDS011;7635;56.696;13.002;2023-03-02T13:19:20;1.37;;;1.00;;
15071;SDS011;7635;56.696;13.002;2023-03-02T13:21:48;1.20;;;0.80;;
15071;SDS011;7635;56.696;13.002;2023-03-02T13:24:23;1.33;;;1.23;;
15071;SDS011;7635;56.696;13.002;2023-03-02T13:26:55;1.60;;;0.80;;
15071;SDS011;7635;56.696;13.002;2023-03-02T13:29:25;1.10;;;1.00;;
15071;SDS011;7635;56.696;13.002;2023-03-02T13:31:52;0.90;;;0.90;;
15071;SDS011;7635;56.696;13.002;2023-03-02T13:34:20;0.93;;;0.83;;
15071;SDS011;7635;56.696;13.002;2023-03-02T13:36:47;1.10;;;1.00;;
15071;SDS011;7635;56.696;13.002;2023-03-02T13:39:17;0.70;;;0.70;;
15071;SDS011;7635;56.696;13.002;2023-03-02T13:41:52;0.97;;;0.83;;
15071;SDS011;7635;56.696;13.002;2023-03-02T13:44:21;0.93;;;0.93;;
15071;SDS011;7635;56.696;13.002;2023-03-02T13:46:52;1.27;;;0.80;;
15071;SDS011;7635;56.696;13.002;2023-03-02T13:49:26;0.93;;;0.93;;
15071;SDS011;7635;56.696;13.002;2023-03-02T13:51:56;0.80;;;0.73;;
15071;SDS011;7635;56.696;13.002;2023-03-02T13:54:30;0.80;;;0.80;;
15071;SDS011;7635;56.696;13.002;2023-03-02T13:57:00;0.93;;;0.90;;
15071;SDS011;7635;56.696;13.002;2023-03-02T13:59:27;0.80;;;0.80;;
15071;SDS011;7635;56.696;13.002;2023-03-02T14:01:56;0.53;;;0.53;;
15071;SDS011;7635;56.696;13.002;2023-03-02T14:04:23;0.97;;;0.60;;
15071;SDS011;7635;56.696;13.002;2023-03-02T14:06:50;0.70;;;0.70;;
15071;SDS011;7635;56.696;13.002;2023-03-02T14:09:18;0.60;;;0.60;;
15071;SDS011;7635;56.696;13.002;2023-03-02T14:11:46;0.80;;;0.80;;
15071;SDS011;7635;56.696;13.002;2023-03-02T14:14:17;0.90;;;0.67;;
15071;SDS011;7635;56.696;13.002;2023-03-02T14:16:46;0.30;;;0.30;;
15071;SDS011;7635;56.696;13.002;2023-03-02T14:19:13;0.77;;;0.77;;
15071;SDS011;7635;56.696;13.002;2023-03-02T14:21:42;0.50;;;0.50;;
15071;SDS011;7635;56.696;13.002;2023-03-02T14:24:09;0.50;;;0.50;;
15071;SDS011;7635;56.696;13.002;2023-03-02T14:26:37;0.40;;;0.40;;
15071;SDS011;7635;56.696;13.002;2023-03-02T14:29:09;1.00;;;0.83;;
15071;SDS011;7635;56.696;13.002;2023-03-02T14:31:43;1.63;;;0.80;;
15071;SDS011;7635;56.696;13.002;2023-03-02T14:34:11;0.53;;;0.53;;
15071;SDS011;7635;56.696;13.002;2023-03-02T14:36:38;0.57;;;0.50;;
15071;SDS011;7635;56.696;13.002;2023-03-02T14:39:09;0.80;;;0.80;;
15071;SDS011;7635;56.696;13.002;2023-03-02T14:41:45;0.83;;;0.60;;
15071;SDS011;7635;56.696;13.002;2023-03-02T14:44:12;0.50;;;0.50;;
15071;SDS011;7635;56.696;13.002;2023-03-02T14:46:40;0.50;;;0.50;;
15071;SDS011;7635;56.696;13.002;2023-03-02T14:49:08;0.70;;;0.70;;
15071;SDS011;7635;56.696;13.002;2023-03-02T14:51:35;0.57;;;0.57;;
15071;SDS011;7635;56.696;13.002;2023-03-02T14:54:05;1.60;;;0.80;;
15071;SDS011;7635;56.696;13.002;2023-03-02T14:56:36;0.40;;;0.40;;
15071;SDS011;7635;56.696;13.002;2023-03-02T14:59:03;0.50;;;0.50;;
15071;SDS011;7635;56.696;13.002;2023-03-02T15:01:30;0.50;;;0.50;;
15071;SDS011;7635;56.696;13.002;2023-03-02T15:03:56;0.50;;;0.50;;
15071;SDS011;7635;56.696;13.002;2023-03-02T15:06:26;0.80;;;0.80;;
15071;SDS011;7635;56.696;13.002;2023-03-02T15:08:55;0.83;;;0.83;;
15071;SDS011;7635;56.696;13.002;2023-03-02T15:11:23;0.70;;;0.70;;